createdAt,value
2017-09-06T00:00:02.514Z,15.40
2017-09-06T00:02:30.080Z,14.63
2017-09-06T00:04:57.672Z,15.40
2017-09-06T00:07:25.242Z,14.27
2017-09-06T00:09:53.044Z,14.73
2017-09-06T00:12:20.703Z,14.20
2017-09-06T00:14:48.356Z,13.93
2017-09-06T00:17:15.978Z,19.33
2017-09-06T00:19:43.589Z,16.77
2017-09-06T00:22:11.360Z,16.17
2017-09-06T00:24:38.923Z,14.00
2017-09-06T00:27:06.511Z,14.50
2017-09-06T00:29:35.743Z,14.00
2017-09-06T00:32:03.343Z,16.83
2017-09-06T00:34:30.999Z,15.13
2017-09-06T00:36:58.661Z,14.97
2017-09-06T00:39:26.247Z,14.37
2017-09-06T00:41:54.604Z,15.38
2017-09-06T00:44:22.264Z,13.03
2017-09-06T00:46:50.216Z,12.20
2017-09-06T00:49:17.898Z,11.57
2017-09-06T00:51:45.565Z,11.77
2017-09-06T00:54:13.219Z,12.83
2017-09-06T00:56:40.786Z,11.42
2017-09-06T00:59:08.355Z,12.80
2017-09-06T01:01:37.849Z,12.00
2017-09-06T01:04:05.515Z,16.57
2017-09-06T01:06:34.104Z,15.93
2017-09-06T01:09:01.689Z,11.00
2017-09-06T01:11:29.324Z,13.93
2017-09-06T01:13:56.905Z,11.53
2017-09-06T01:16:24.915Z,12.27
2017-09-06T01:18:52.844Z,15.77
2017-09-06T01:21:20.560Z,11.97
2017-09-06T01:23:48.218Z,14.00
2017-09-06T01:26:15.960Z,15.83
2017-09-06T01:28:43.532Z,13.18
2017-09-06T01:31:11.136Z,16.17
2017-09-06T01:33:38.724Z,15.43
2017-09-06T01:36:06.288Z,12.07
2017-09-06T01:38:35.964Z,10.07
2017-09-06T01:41:03.625Z,15.50
2017-09-06T01:43:31.420Z,12.00
2017-09-06T01:45:59.768Z,13.30
2017-09-06T01:48:27.340Z,12.00
2017-09-06T01:50:54.937Z,11.38
2017-09-06T01:53:22.499Z,10.03
2017-09-06T01:55:50.113Z,11.60
2017-09-06T01:58:17.776Z,12.50
2017-09-06T02:00:45.373Z,15.88
2017-09-06T02:03:13.004Z,10.77
2017-09-06T02:05:40.599Z,11.05
2017-09-06T02:08:08.220Z,11.40
2017-09-06T02:10:37.728Z,18.80
2017-09-06T02:13:05.391Z,16.53
2017-09-06T02:15:33.152Z,14.17
2017-09-06T02:18:00.724Z,12.40
2017-09-06T02:20:28.380Z,11.03
2017-09-06T02:22:56.140Z,10.77
2017-09-06T02:25:23.809Z,10.97
2017-09-06T02:27:52.296Z,12.50
2017-09-06T02:30:19.883Z,13.20
2017-09-06T02:32:47.453Z,11.47
2017-09-06T02:35:15.052Z,12.20
2017-09-06T02:37:42.632Z,10.83
2017-09-06T02:40:10.224Z,11.67
2017-09-06T02:42:40.117Z,13.15
2017-09-06T02:45:07.735Z,12.50
2017-09-06T02:47:37.685Z,10.57
2017-09-06T02:50:05.352Z,10.60
2017-09-06T02:52:33.007Z,11.07
2017-09-06T02:55:00.572Z,13.60
2017-09-06T02:57:28.139Z,12.90
2017-09-06T02:59:55.753Z,12.43
2017-09-06T03:02:23.352Z,12.23
2017-09-06T03:04:51.020Z,15.13
2017-09-06T03:07:18.737Z,12.90
2017-09-06T03:09:46.311Z,13.95
2017-09-06T03:12:13.900Z,13.70
2017-09-06T03:14:41.497Z,11.60
2017-09-06T03:17:09.059Z,11.67
2017-09-06T03:19:37.600Z,12.37
2017-09-06T03:22:05.267Z,13.63
2017-09-06T03:24:33.117Z,12.50
2017-09-06T03:27:00.683Z,11.07
2017-09-06T03:29:28.357Z,14.30
2017-09-06T03:31:56.028Z,12.20
2017-09-06T03:34:23.608Z,12.50
2017-09-06T03:36:51.348Z,15.37
2017-09-06T03:39:18.909Z,14.70
2017-09-06T03:41:46.477Z,13.53
2017-09-06T03:44:14.128Z,12.07
2017-09-06T03:46:41.692Z,15.63
2017-09-06T03:49:09.276Z,12.70
2017-09-06T03:51:37.616Z,15.40
2017-09-06T03:54:05.291Z,14.93
2017-09-06T03:56:32.863Z,16.17
2017-09-06T03:59:01.224Z,16.47
2017-09-06T04:01:28.786Z,14.87
2017-09-06T04:03:56.384Z,13.97
2017-09-06T04:06:24.016Z,15.93
2017-09-06T04:08:51.677Z,14.63
2017-09-06T04:11:19.340Z,14.53
2017-09-06T04:13:46.932Z,15.23
2017-09-06T04:16:14.559Z,15.87
2017-09-06T04:18:42.164Z,13.57
2017-09-06T04:21:09.784Z,14.00
2017-09-06T04:23:37.447Z,17.50
2017-09-06T04:26:05.036Z,16.10
2017-09-06T04:28:32.676Z,17.37
2017-09-06T04:31:00.272Z,16.27
2017-09-06T04:33:27.839Z,15.20
2017-09-06T04:35:55.456Z,14.77
2017-09-06T04:38:23.020Z,13.80
2017-09-06T04:40:50.632Z,21.47
2017-09-06T04:43:18.245Z,18.23
2017-09-06T04:45:45.817Z,19.37
2017-09-06T04:48:13.408Z,16.20
2017-09-06T04:50:41.029Z,15.32
2017-09-06T04:53:08.624Z,16.60
2017-09-06T04:55:37.481Z,19.63
2017-09-06T04:58:05.141Z,18.27
2017-09-06T05:00:32.800Z,21.03
2017-09-06T05:03:00.395Z,15.97
2017-09-06T05:05:27.968Z,20.90
2017-09-06T05:07:55.564Z,20.03
2017-09-06T05:10:23.140Z,19.20
2017-09-06T05:12:50.917Z,20.45
2017-09-06T05:15:18.571Z,16.90
2017-09-06T05:17:46.152Z,22.05
2017-09-06T05:20:13.743Z,18.47
2017-09-06T05:22:41.508Z,18.37
2017-09-06T05:25:09.086Z,18.10
2017-09-06T05:27:37.693Z,21.80
2017-09-06T05:30:05.368Z,15.10
2017-09-06T05:32:33.028Z,16.70
2017-09-06T05:35:00.687Z,17.23
2017-09-06T05:37:28.251Z,19.13
2017-09-06T05:39:55.852Z,17.67
2017-09-06T05:42:23.471Z,15.23
2017-09-06T05:44:51.141Z,14.43
2017-09-06T05:47:18.795Z,16.00
2017-09-06T05:49:46.459Z,15.20
2017-09-06T05:52:14.128Z,13.63
2017-09-06T05:54:41.697Z,11.35
2017-09-06T05:57:09.468Z,10.97
2017-09-06T05:59:37.827Z,15.40
2017-09-06T06:02:05.506Z,9.30
2017-09-06T06:04:33.883Z,10.48
2017-09-06T06:07:01.532Z,9.73
2017-09-06T06:09:29.117Z,11.60
2017-09-06T06:11:56.761Z,9.73
2017-09-06T06:14:24.356Z,12.30
2017-09-06T06:16:51.976Z,9.68
2017-09-06T06:19:19.568Z,11.00
2017-09-06T06:21:47.896Z,9.83
2017-09-06T06:24:15.581Z,11.23
2017-09-06T06:26:43.257Z,9.50
2017-09-06T06:29:10.852Z,10.20
2017-09-06T06:31:41.013Z,11.05
2017-09-06T06:34:08.689Z,9.87
2017-09-06T06:36:36.772Z,9.27
2017-09-06T06:39:04.432Z,13.23
2017-09-06T06:41:32.796Z,11.82
2017-09-06T06:44:00.469Z,10.10
2017-09-06T06:46:28.416Z,9.93
2017-09-06T06:48:56.000Z,11.50
2017-09-06T06:51:23.659Z,10.90
2017-09-06T06:53:51.248Z,11.60
2017-09-06T06:56:18.816Z,9.60
2017-09-06T06:58:46.412Z,11.27
2017-09-06T07:01:14.004Z,9.17
2017-09-06T07:03:41.592Z,7.07
2017-09-06T07:06:09.156Z,7.00
2017-09-06T07:08:36.815Z,7.40
2017-09-06T07:11:04.382Z,7.23
2017-09-06T07:13:31.968Z,9.77
2017-09-06T07:16:00.384Z,8.83
2017-09-06T07:18:28.147Z,7.57
2017-09-06T07:20:55.709Z,9.80
2017-09-06T07:23:23.376Z,10.60
2017-09-06T07:25:50.997Z,7.70
2017-09-06T07:28:18.597Z,8.00
2017-09-06T07:30:46.264Z,18.65
2017-09-06T07:33:13.920Z,7.75
2017-09-06T07:35:41.588Z,8.63
2017-09-06T07:38:09.173Z,8.00
2017-09-06T07:40:37.224Z,6.57
2017-09-06T07:43:05.089Z,9.57
2017-09-06T07:45:32.653Z,7.63
2017-09-06T07:48:00.309Z,8.90
2017-09-06T07:50:27.972Z,8.10
2017-09-06T07:52:55.573Z,8.73
2017-09-06T07:55:23.191Z,6.00
2017-09-06T07:57:50.762Z,7.07
2017-09-06T08:00:18.369Z,5.40
2017-09-06T08:02:45.944Z,10.05
2017-09-06T08:05:13.536Z,7.80
2017-09-06T08:10:39.097Z,7.07
2017-09-06T08:13:06.690Z,10.60
2017-09-06T08:15:35.792Z,6.90
2017-09-06T08:18:03.387Z,6.53
2017-09-06T08:20:30.977Z,5.27
2017-09-06T08:22:58.540Z,9.37
2017-09-06T08:25:26.993Z,6.80
2017-09-06T08:27:54.556Z,4.23
2017-09-06T08:30:23.405Z,6.53
2017-09-06T08:32:51.107Z,3.97
2017-09-06T08:35:18.665Z,5.70
2017-09-06T08:37:47.157Z,5.85
2017-09-06T08:40:14.716Z,5.40
2017-09-06T08:42:42.368Z,7.95
2017-09-06T08:45:10.032Z,3.40
2017-09-06T08:47:37.617Z,3.90
2017-09-06T08:50:05.256Z,3.70
2017-09-06T08:52:32.919Z,5.43
2017-09-06T08:55:00.479Z,4.50
2017-09-06T08:57:28.221Z,6.63
2017-09-06T08:59:55.820Z,4.70
2017-09-06T09:02:23.580Z,4.40
2017-09-06T09:04:51.296Z,9.93
2017-09-06T09:07:18.872Z,3.90
2017-09-06T09:09:46.550Z,4.00
2017-09-06T09:12:14.222Z,4.60
2017-09-06T09:14:41.783Z,3.10
2017-09-06T09:17:09.440Z,2.93
2017-09-06T09:19:37.004Z,2.13
2017-09-06T09:22:04.665Z,2.60
2017-09-06T09:24:32.328Z,2.57
2017-09-06T09:26:59.897Z,2.33
2017-09-06T09:29:27.484Z,4.10
2017-09-06T09:31:55.048Z,3.60
2017-09-06T09:34:22.672Z,4.50
2017-09-06T09:36:50.332Z,3.10
2017-09-06T09:39:17.920Z,3.40
2017-09-06T09:41:45.484Z,5.62
2017-09-06T09:44:13.936Z,1.77
2017-09-06T09:46:41.552Z,4.40
2017-09-06T09:49:09.155Z,2.30
2017-09-06T09:51:36.920Z,1.87
2017-09-06T09:54:04.525Z,2.80
2017-09-06T09:56:32.088Z,2.73
2017-09-06T09:58:59.712Z,2.23
2017-09-06T10:01:27.326Z,1.70
2017-09-06T10:03:54.928Z,2.22
2017-09-06T10:06:22.488Z,2.50
2017-09-06T10:08:50.081Z,1.40
2017-09-06T10:11:18.432Z,1.50
2017-09-06T10:13:46.565Z,1.67
2017-09-06T10:16:14.128Z,5.10
2017-09-06T10:18:41.725Z,4.53
2017-09-06T10:21:09.389Z,2.17
2017-09-06T10:23:37.336Z,2.90
2017-09-06T10:26:04.918Z,1.80
2017-09-06T10:28:32.590Z,1.77
2017-09-06T10:31:00.157Z,2.70
2017-09-06T10:33:27.804Z,1.47
2017-09-06T10:35:55.465Z,2.20
2017-09-06T10:38:23.057Z,1.77
2017-09-06T10:40:50.688Z,1.25
2017-09-06T10:43:18.348Z,1.50
2017-09-06T10:45:45.907Z,0.80
2017-09-06T10:48:13.576Z,0.90
2017-09-06T10:50:41.136Z,1.45
2017-09-06T10:53:08.911Z,1.00
2017-09-06T10:55:36.872Z,1.00
2017-09-06T10:58:04.440Z,1.20
2017-09-06T11:00:32.050Z,2.30
2017-09-06T11:02:59.612Z,2.40
2017-09-06T11:05:27.176Z,1.20
2017-09-06T11:07:55.087Z,1.67
2017-09-06T11:10:22.652Z,1.97
2017-09-06T11:12:50.212Z,1.07
2017-09-06T11:15:17.862Z,1.77
2017-09-06T11:17:45.433Z,1.85
2017-09-06T11:20:13.900Z,1.80
2017-09-06T11:22:41.465Z,0.90
2017-09-06T11:25:09.125Z,1.63
2017-09-06T11:27:36.828Z,1.07
2017-09-06T11:30:04.453Z,3.07
2017-09-06T11:32:32.012Z,1.23
2017-09-06T11:34:59.717Z,1.07
2017-09-06T11:37:27.280Z,1.10
2017-09-06T11:39:54.906Z,2.67
2017-09-06T11:42:22.559Z,4.77
2017-09-06T11:44:50.219Z,2.92
2017-09-06T11:47:17.780Z,2.47
2017-09-06T11:49:45.369Z,1.80
2017-09-06T11:52:12.935Z,1.62
2017-09-06T11:54:40.561Z,3.08
2017-09-06T11:57:08.137Z,2.40
2017-09-06T11:59:37.737Z,3.37
2017-09-06T12:02:05.309Z,2.20
2017-09-06T12:04:32.871Z,3.30
2017-09-06T12:07:00.459Z,3.43
2017-09-06T12:09:28.015Z,2.83
2017-09-06T12:11:55.604Z,2.17
2017-09-06T12:14:23.485Z,1.97
2017-09-06T12:16:51.168Z,4.97
2017-09-06T12:19:18.736Z,1.93
2017-09-06T12:21:46.493Z,4.00
2017-09-06T12:24:14.158Z,1.70
2017-09-06T12:26:41.719Z,3.72
2017-09-06T12:29:09.309Z,2.10
2017-09-06T12:31:36.872Z,5.57
2017-09-06T12:34:04.465Z,2.70
2017-09-06T12:36:32.032Z,1.80
2017-09-06T12:38:59.621Z,1.70
2017-09-06T12:41:27.200Z,1.87
2017-09-06T12:43:54.945Z,3.33
2017-09-06T12:46:22.608Z,2.93
2017-09-06T12:48:50.557Z,2.17
2017-09-06T12:51:18.244Z,6.10
2017-09-06T12:53:45.815Z,6.80
2017-09-06T12:56:13.412Z,3.40
2017-09-06T12:58:40.985Z,2.70
2017-09-06T13:01:08.584Z,2.93
2017-09-06T13:03:36.970Z,1.90
2017-09-06T13:06:04.561Z,1.83
2017-09-06T13:08:32.120Z,1.87
2017-09-06T13:10:59.756Z,2.00
2017-09-06T13:13:27.328Z,1.13
2017-09-06T13:15:54.916Z,1.45
2017-09-06T13:18:22.528Z,1.20
2017-09-06T13:20:50.192Z,2.37
2017-09-06T13:23:17.857Z,1.50
2017-09-06T13:25:45.824Z,0.70
2017-09-06T13:28:13.393Z,2.40
2017-09-06T13:30:41.063Z,1.30
2017-09-06T13:33:08.656Z,1.50
2017-09-06T13:35:37.357Z,1.35
2017-09-06T13:38:04.961Z,3.77
2017-09-06T13:40:32.526Z,2.33
2017-09-06T13:43:00.180Z,3.20
2017-09-06T13:45:27.744Z,2.87
2017-09-06T13:47:55.317Z,4.30
2017-09-06T13:50:22.985Z,3.20
2017-09-06T13:52:51.321Z,3.27
2017-09-06T13:55:18.908Z,6.93
2017-09-06T13:57:46.564Z,5.83
2017-09-06T14:00:14.434Z,6.53
2017-09-06T14:02:42.093Z,4.80
2017-09-06T14:05:09.752Z,3.33
2017-09-06T14:07:37.420Z,3.03
2017-09-06T14:10:04.981Z,5.47
2017-09-06T14:12:32.565Z,4.50
2017-09-06T14:15:00.124Z,8.23
2017-09-06T14:17:27.967Z,4.87
2017-09-06T14:19:55.527Z,7.53
2017-09-06T14:22:23.184Z,8.90
2017-09-06T14:24:50.767Z,6.80
2017-09-06T14:27:19.128Z,7.43
2017-09-06T14:29:46.787Z,6.53
2017-09-06T14:32:14.360Z,11.17
2017-09-06T14:34:42.014Z,5.70
2017-09-06T14:37:09.580Z,8.13
2017-09-06T14:39:37.167Z,7.00
2017-09-06T14:42:04.797Z,13.47
2017-09-06T14:44:32.560Z,11.50
2017-09-06T14:47:00.130Z,9.57
2017-09-06T14:49:27.700Z,6.57
2017-09-06T14:51:55.348Z,13.37
2017-09-06T14:54:22.916Z,10.50
2017-09-06T14:56:50.573Z,8.53
2017-09-06T14:59:18.140Z,15.97
2017-09-06T15:01:45.740Z,5.85
2017-09-06T15:04:13.305Z,12.53
2017-09-06T15:06:40.917Z,13.43
2017-09-06T15:09:08.504Z,7.50
2017-09-06T15:11:37.173Z,6.67
2017-09-06T15:14:04.820Z,7.23
2017-09-06T15:16:32.384Z,8.93
2017-09-06T15:19:00.044Z,13.07
2017-09-06T15:21:27.604Z,7.43
2017-09-06T15:23:55.264Z,10.27
2017-09-06T15:26:22.829Z,8.20
2017-09-06T15:28:50.492Z,13.40
2017-09-06T15:31:18.156Z,11.50
2017-09-06T15:33:45.755Z,10.23
2017-09-06T15:36:13.372Z,7.80
2017-09-06T15:38:40.964Z,11.63
2017-09-06T15:41:08.536Z,15.53
2017-09-06T15:43:36.938Z,8.88
2017-09-06T15:46:04.513Z,14.80
2017-09-06T15:48:32.075Z,7.40
2017-09-06T15:50:59.756Z,10.37
2017-09-06T15:53:27.319Z,12.60
2017-09-06T15:55:54.883Z,10.70
2017-09-06T15:58:22.540Z,9.33
2017-09-06T16:00:50.103Z,9.13
2017-09-06T16:03:17.708Z,10.00
2017-09-06T16:05:45.329Z,9.57
2017-09-06T16:08:12.893Z,8.33
2017-09-06T16:10:40.488Z,9.15
2017-09-06T16:13:08.174Z,9.03
2017-09-06T16:15:36.860Z,8.17
2017-09-06T16:18:04.464Z,8.37
2017-09-06T16:20:32.124Z,7.43
2017-09-06T16:22:59.786Z,12.53
2017-09-06T16:25:27.420Z,8.83
2017-09-06T16:27:54.989Z,7.25
2017-09-06T16:30:22.564Z,9.37
2017-09-06T16:32:50.227Z,7.40
2017-09-06T16:35:17.888Z,9.13
2017-09-06T16:37:45.468Z,9.17
2017-09-06T16:40:13.801Z,6.43
2017-09-06T16:42:41.644Z,8.42
2017-09-06T16:45:09.207Z,8.00
2017-09-06T16:47:36.856Z,6.83
2017-09-06T16:50:04.489Z,9.80
2017-09-06T16:52:32.085Z,7.43
2017-09-06T16:54:59.652Z,7.23
2017-09-06T16:57:27.212Z,7.67
2017-09-06T16:59:54.804Z,9.03
2017-09-06T17:02:22.388Z,15.40
2017-09-06T17:04:49.975Z,15.75
2017-09-06T17:07:17.537Z,8.23
2017-09-06T17:09:45.125Z,10.00
2017-09-06T17:12:12.691Z,10.73
2017-09-06T17:14:40.279Z,5.80
2017-09-06T17:17:07.848Z,10.70
2017-09-06T17:19:37.072Z,10.80
2017-09-06T17:22:05.428Z,10.33
2017-09-06T17:24:34.012Z,9.63
2017-09-06T17:27:01.744Z,10.40
2017-09-06T17:29:29.313Z,10.20
2017-09-06T17:31:56.917Z,7.55
2017-09-06T17:34:24.561Z,8.67
2017-09-06T17:36:52.223Z,8.57
2017-09-06T17:39:19.897Z,8.50
2017-09-06T17:41:47.484Z,11.27
2017-09-06T17:44:15.052Z,13.83
2017-09-06T17:46:42.681Z,5.80
2017-09-06T17:49:10.257Z,5.53
2017-09-06T17:51:37.824Z,8.83
2017-09-06T17:54:05.461Z,13.87
2017-09-06T17:56:33.023Z,9.80
2017-09-06T17:59:00.609Z,7.73
2017-09-06T18:01:28.232Z,9.63
2017-09-06T18:03:55.837Z,6.95
2017-09-06T18:06:23.456Z,5.50
2017-09-06T18:08:51.028Z,13.43
2017-09-06T18:11:18.611Z,7.43
2017-09-06T18:13:46.172Z,3.70
2017-09-06T18:16:13.800Z,8.10
2017-09-06T18:18:41.460Z,4.57
2017-09-06T18:21:09.124Z,8.80
2017-09-06T18:23:36.904Z,5.12
2017-09-06T18:26:04.496Z,9.53
2017-09-06T18:28:32.061Z,4.13
2017-09-06T18:31:00.736Z,4.40
2017-09-06T18:33:28.365Z,4.90
2017-09-06T18:35:56.071Z,3.50
2017-09-06T18:38:23.730Z,1.90
2017-09-06T18:40:51.300Z,7.93
2017-09-06T18:43:18.883Z,2.67
2017-09-06T18:45:46.510Z,8.13
2017-09-06T18:48:14.109Z,4.83
2017-09-06T18:50:42.329Z,4.53
2017-09-06T18:53:09.966Z,5.80
2017-09-06T18:55:37.529Z,3.00
2017-09-06T18:58:05.089Z,2.63
2017-09-06T19:00:32.676Z,5.20
2017-09-06T19:03:00.354Z,3.33
2017-09-06T19:05:28.264Z,6.97
2017-09-06T19:07:55.828Z,4.60
2017-09-06T19:10:23.416Z,5.30
2017-09-06T19:12:51.064Z,6.97
2017-09-06T19:15:18.828Z,9.53
2017-09-06T19:17:46.393Z,5.80
2017-09-06T19:20:14.655Z,4.93
2017-09-06T19:22:42.241Z,2.60
2017-09-06T19:25:10.577Z,6.80
2017-09-06T19:27:38.557Z,8.07
2017-09-06T19:30:06.135Z,2.57
2017-09-06T19:32:35.232Z,7.40
2017-09-06T19:35:02.792Z,5.63
2017-09-06T19:37:30.394Z,5.90
2017-09-06T19:39:58.058Z,5.50
2017-09-06T19:42:25.625Z,6.30
2017-09-06T19:44:53.637Z,4.78
2017-09-06T19:47:21.213Z,2.63
2017-09-06T19:49:48.822Z,7.30
2017-09-06T19:52:16.408Z,6.60
2017-09-06T19:54:44.015Z,4.07
2017-09-06T19:57:12.476Z,4.53
2017-09-06T19:59:40.097Z,4.93
2017-09-06T20:02:07.722Z,3.30
2017-09-06T20:04:36.830Z,9.10
2017-09-06T20:07:06.293Z,5.17
2017-09-06T20:09:34.904Z,6.00
2017-09-06T20:12:02.802Z,8.97
2017-09-06T20:14:30.420Z,6.73
2017-09-06T20:16:57.992Z,6.03
2017-09-06T20:19:25.634Z,4.93
2017-09-06T20:21:53.196Z,6.97
2017-09-06T20:24:20.765Z,13.80
2017-09-06T20:26:48.398Z,6.80
2017-09-06T20:29:15.963Z,8.35
2017-09-06T20:31:43.609Z,2.53
2017-09-06T20:34:11.177Z,7.47
2017-09-06T20:36:38.767Z,5.30
2017-09-06T20:39:06.353Z,5.63
2017-09-06T20:41:34.192Z,6.07
2017-09-06T20:44:01.784Z,6.50
2017-09-06T20:46:29.352Z,4.53
2017-09-06T20:48:56.981Z,5.40
2017-09-06T20:51:24.637Z,9.13
2017-09-06T20:53:52.605Z,5.00
2017-09-06T20:56:20.332Z,7.63
2017-09-06T20:58:47.931Z,6.80
2017-09-06T21:01:15.591Z,5.23
2017-09-06T21:03:43.160Z,4.00
2017-09-06T21:06:10.925Z,5.57
2017-09-06T21:08:38.488Z,4.97
2017-09-06T21:11:06.047Z,8.17
2017-09-06T21:13:35.224Z,12.20
2017-09-06T21:16:02.805Z,6.50
2017-09-06T21:18:30.460Z,5.80
2017-09-06T21:20:58.128Z,10.63
2017-09-06T21:23:25.724Z,5.90
2017-09-06T21:25:53.297Z,16.83
2017-09-06T21:28:20.980Z,9.53
2017-09-06T21:30:48.548Z,11.20
2017-09-06T21:33:16.332Z,5.67
2017-09-06T21:35:43.905Z,6.62
2017-09-06T21:38:11.620Z,9.67
2017-09-06T21:40:39.212Z,11.57
2017-09-06T21:43:06.774Z,8.80
2017-09-06T21:45:36.580Z,13.80
2017-09-06T21:48:04.141Z,8.93
2017-09-06T21:50:31.732Z,12.03
2017-09-06T21:52:59.305Z,10.93
2017-09-06T21:55:26.900Z,9.00
2017-09-06T21:57:54.500Z,10.17
2017-09-06T22:00:22.092Z,8.77
2017-09-06T22:02:49.664Z,12.50
2017-09-06T22:05:18.018Z,6.87
2017-09-06T22:07:45.587Z,11.83
2017-09-06T22:10:14.036Z,8.03
2017-09-06T22:12:41.703Z,9.33
2017-09-06T22:15:09.264Z,11.57
2017-09-06T22:17:37.630Z,7.95
2017-09-06T22:20:05.200Z,11.27
2017-09-06T22:22:32.864Z,8.50
2017-09-06T22:25:00.434Z,13.67
2017-09-06T22:27:28.084Z,11.50
2017-09-06T22:29:55.664Z,5.93
2017-09-06T22:32:23.992Z,9.70
2017-09-06T22:34:51.689Z,8.98
2017-09-06T22:37:19.256Z,14.73
2017-09-06T22:39:46.852Z,13.47
2017-09-06T22:42:14.421Z,11.63
2017-09-06T22:44:42.021Z,14.70
2017-09-06T22:47:09.584Z,12.33
2017-09-06T22:49:37.180Z,18.00
2017-09-06T22:52:05.516Z,6.57
2017-09-06T22:54:34.028Z,9.80
2017-09-06T22:57:01.595Z,9.57
2017-09-06T22:59:29.212Z,13.73
2017-09-06T23:01:56.785Z,17.50
2017-09-06T23:04:24.460Z,5.53
2017-09-06T23:06:52.048Z,13.63
2017-09-06T23:09:19.617Z,9.00
2017-09-06T23:11:47.344Z,9.00
2017-09-06T23:14:14.908Z,9.18
2017-09-06T23:16:42.572Z,14.77
2017-09-06T23:19:10.160Z,16.90
2017-09-06T23:21:38.521Z,12.03
2017-09-06T23:24:06.508Z,10.47
2017-09-06T23:26:34.960Z,11.43
2017-09-06T23:29:02.620Z,13.87
2017-09-06T23:31:30.524Z,9.20
2017-09-06T23:33:58.088Z,17.23
2017-09-06T23:36:25.652Z,17.75
2017-09-06T23:38:53.240Z,14.38
2017-09-06T23:41:20.800Z,7.75
2017-09-06T23:43:48.388Z,7.20
2017-09-06T23:46:15.952Z,9.57
2017-09-06T23:48:43.557Z,9.20
2017-09-06T23:51:11.124Z,14.93
2017-09-06T23:53:38.688Z,38.20
2017-09-06T23:56:06.600Z,24.80
2017-09-06T23:58:35.928Z,10.35
